createdAt,value
2022-12-29T00:00:15.069Z,84.07
2022-12-29T00:02:43.283Z,83.69
2022-12-29T00:05:11.041Z,83.59
2022-12-29T00:07:38.834Z,83.54
2022-12-29T00:10:06.477Z,83.22
2022-12-29T00:12:48.288Z,83.31
2022-12-29T00:15:33.482Z,83.00
2022-12-29T00:18:01.897Z,83.30
2022-12-29T00:20:47.068Z,83.32
2022-12-29T00:23:31.994Z,83.34
2022-12-29T00:26:17.582Z,82.76
2022-12-29T00:29:03.184Z,83.36
2022-12-29T00:31:48.191Z,83.08
2022-12-29T00:34:33.553Z,83.01
2022-12-29T00:37:01.478Z,83.00
2022-12-29T00:39:46.746Z,83.51
2022-12-29T00:42:31.917Z,83.34
2022-12-29T00:45:00.374Z,83.73
2022-12-29T00:47:28.043Z,83.36
2022-12-29T00:49:54.703Z,82.93
2022-12-29T00:52:22.312Z,83.06
2022-12-29T00:54:50.092Z,83.50
2022-12-29T00:57:18.319Z,83.28
2022-12-29T00:59:46.436Z,83.49
2022-12-29T01:02:14.184Z,83.29
2022-12-29T01:04:41.939Z,83.40
2022-12-29T01:07:09.580Z,83.69
2022-12-29T01:09:55.128Z,83.63
2022-12-29T01:12:41.754Z,84.14
2022-12-29T01:15:09.564Z,84.33
2022-12-29T01:17:37.264Z,84.78
2022-12-29T01:20:05.496Z,84.91
2022-12-29T01:22:33.227Z,84.89
2022-12-29T01:25:01.530Z,85.40
2022-12-29T01:27:29.095Z,85.62
2022-12-29T01:29:56.752Z,85.48
2022-12-29T01:32:24.747Z,85.30
2022-12-29T01:34:52.332Z,85.29
2022-12-29T01:37:19.982Z,85.67
2022-12-29T01:39:47.580Z,85.44
2022-12-29T01:42:15.519Z,85.83
2022-12-29T01:44:43.613Z,86.39
2022-12-29T01:47:11.395Z,85.57
2022-12-29T01:49:39.020Z,85.15
2022-12-29T01:52:06.650Z,85.13
2022-12-29T01:54:34.866Z,85.88
2022-12-29T01:57:02.803Z,85.54
2022-12-29T01:59:30.453Z,86.19
2022-12-29T02:01:58.056Z,86.10
2022-12-29T02:04:26.092Z,85.89
2022-12-29T02:06:53.709Z,86.10
2022-12-29T02:09:21.678Z,86.00
2022-12-29T02:11:49.512Z,86.10
2022-12-29T02:14:17.122Z,86.11
2022-12-29T02:16:44.733Z,85.93
2022-12-29T02:19:12.331Z,86.19
2022-12-29T02:21:40.301Z,85.92
2022-12-29T02:24:08.087Z,85.35
2022-12-29T02:26:36.067Z,85.30
2022-12-29T02:29:03.717Z,84.96
2022-12-29T02:31:31.356Z,85.15
2022-12-29T02:33:59.338Z,84.67
2022-12-29T02:36:26.989Z,84.30
2022-12-29T02:38:54.559Z,84.36
2022-12-29T02:41:22.172Z,83.83
2022-12-29T02:43:49.810Z,84.04
2022-12-29T02:46:17.910Z,83.84
2022-12-29T02:48:46.017Z,84.19
2022-12-29T02:51:13.635Z,84.28
2022-12-29T02:53:58.550Z,83.99
2022-12-29T02:56:26.506Z,84.03
2022-12-29T02:58:54.299Z,84.00
2022-12-29T03:01:22.037Z,83.92
2022-12-29T03:03:49.850Z,83.26
2022-12-29T03:06:17.492Z,83.19
2022-12-29T03:08:46.477Z,82.93
2022-12-29T03:11:27.869Z,82.59
2022-12-29T03:14:13.081Z,82.40
2022-12-29T03:16:40.785Z,81.91
2022-12-29T03:19:08.756Z,81.68
2022-12-29T03:21:54.108Z,81.75
2022-12-29T03:24:21.693Z,81.23
2022-12-29T03:26:49.319Z,80.76
2022-12-29T03:29:17.727Z,80.15
2022-12-29T03:31:46.118Z,80.37
2022-12-29T03:34:13.673Z,79.53
2022-12-29T03:36:41.837Z,79.98
2022-12-29T03:39:09.402Z,79.83
2022-12-29T03:41:37.245Z,79.69
2022-12-29T03:44:14.080Z,79.95
2022-12-29T03:46:42.060Z,81.05
2022-12-29T03:49:09.681Z,81.56
2022-12-29T03:51:37.962Z,81.43
2022-12-29T03:54:05.539Z,81.57
2022-12-29T03:56:33.108Z,81.85
2022-12-29T03:59:01.725Z,82.26
2022-12-29T04:01:29.350Z,81.90
2022-12-29T04:03:57.396Z,82.38
2022-12-29T04:06:25.005Z,82.19
2022-12-29T04:08:52.585Z,82.35
2022-12-29T04:11:20.361Z,82.85
2022-12-29T04:13:48.445Z,83.20
2022-12-29T04:16:16.151Z,83.18
2022-12-29T04:18:43.813Z,83.49
2022-12-29T04:21:11.453Z,83.53
2022-12-29T04:23:39.245Z,83.63
2022-12-29T04:26:07.473Z,83.43
2022-12-29T04:28:35.643Z,83.19
2022-12-29T04:31:03.490Z,83.08
2022-12-29T04:33:31.118Z,82.60
2022-12-29T04:36:00.401Z,82.91
2022-12-29T04:38:27.974Z,82.34
2022-12-29T04:40:55.940Z,82.05
2022-12-29T04:43:23.998Z,81.82
2022-12-29T04:45:51.557Z,82.33
2022-12-29T04:48:19.299Z,82.35
2022-12-29T04:50:46.983Z,82.22
2022-12-29T04:53:14.999Z,82.18
2022-12-29T04:55:42.576Z,81.30
2022-12-29T04:58:10.633Z,81.07
2022-12-29T05:00:38.394Z,81.18
2022-12-29T05:03:06.171Z,80.82
2022-12-29T05:05:34.388Z,80.28
2022-12-29T05:08:01.959Z,80.08
2022-12-29T05:10:29.581Z,79.54
2022-12-29T05:12:57.401Z,79.86
2022-12-29T05:15:24.990Z,79.96
2022-12-29T05:17:52.782Z,79.16
2022-12-29T05:20:20.424Z,79.11
2022-12-29T05:22:48.040Z,79.04
2022-12-29T05:25:16.041Z,78.67
2022-12-29T05:27:43.674Z,79.21
2022-12-29T05:30:11.339Z,78.49
2022-12-29T05:32:38.911Z,78.46
2022-12-29T05:35:06.563Z,79.20
2022-12-29T05:37:35.260Z,79.22
2022-12-29T05:40:02.848Z,78.45
2022-12-29T05:42:31.208Z,78.51
2022-12-29T05:44:58.790Z,78.34
2022-12-29T05:47:26.365Z,77.73
2022-12-29T05:49:54.019Z,77.33
2022-12-29T05:52:21.644Z,77.45
2022-12-29T05:54:49.632Z,77.23
2022-12-29T05:57:17.303Z,76.69
2022-12-29T05:59:44.899Z,77.09
2022-12-29T06:02:12.630Z,77.08
2022-12-29T06:04:40.897Z,76.94
2022-12-29T06:07:08.860Z,76.40
2022-12-29T06:09:36.460Z,76.81
2022-12-29T06:12:04.072Z,76.16
2022-12-29T06:14:31.647Z,76.17
2022-12-29T06:16:59.264Z,75.89
2022-12-29T06:19:27.288Z,75.73
2022-12-29T06:21:54.876Z,75.61
2022-12-29T06:24:22.430Z,75.74
2022-12-29T06:26:51.535Z,75.62
2022-12-29T06:29:19.157Z,75.50
2022-12-29T06:31:47.716Z,75.70
2022-12-29T06:34:15.393Z,75.92
2022-12-29T06:36:42.980Z,75.76
2022-12-29T06:39:10.768Z,75.30
2022-12-29T06:41:38.988Z,75.08
2022-12-29T06:44:06.963Z,74.99
2022-12-29T06:46:34.912Z,75.12
2022-12-29T06:49:02.580Z,75.21
2022-12-29T06:51:30.490Z,75.17
2022-12-29T06:53:58.089Z,75.38
2022-12-29T06:56:25.759Z,74.84
2022-12-29T06:58:53.336Z,75.46
2022-12-29T07:01:21.052Z,75.26
2022-12-29T07:03:49.001Z,75.06
2022-12-29T07:06:16.611Z,74.86
2022-12-29T07:08:44.653Z,74.58
2022-12-29T07:11:12.660Z,75.06
2022-12-29T07:13:40.253Z,74.79
2022-12-29T07:16:08.030Z,74.97
2022-12-29T07:18:35.682Z,75.34
2022-12-29T07:21:03.488Z,76.12
2022-12-29T07:23:31.137Z,75.82
2022-12-29T07:25:58.763Z,76.40
2022-12-29T07:28:26.577Z,76.67
2022-12-29T07:30:54.237Z,76.78
2022-12-29T07:33:22.220Z,77.64
2022-12-29T07:35:49.829Z,77.55
2022-12-29T07:38:17.655Z,77.89
2022-12-29T07:40:45.407Z,78.00
2022-12-29T07:43:13.023Z,77.36
2022-12-29T07:45:41.344Z,77.36
2022-12-29T07:48:09.601Z,77.91
2022-12-29T07:50:37.304Z,77.31
2022-12-29T07:53:05.210Z,78.07
2022-12-29T07:55:33.392Z,78.09
2022-12-29T07:58:01.360Z,77.94
2022-12-29T08:00:29.008Z,77.85
2022-12-29T08:02:56.685Z,77.87
2022-12-29T08:05:24.476Z,78.58
2022-12-29T08:07:52.134Z,78.02
2022-12-29T08:10:20.161Z,78.08
2022-12-29T08:12:47.785Z,78.53
2022-12-29T08:15:15.821Z,78.01
2022-12-29T08:17:43.528Z,77.85
2022-12-29T08:20:11.354Z,77.75
2022-12-29T08:22:39.452Z,76.98
2022-12-29T08:25:07.164Z,77.04
2022-12-29T08:27:34.819Z,76.72
2022-12-29T08:30:02.922Z,76.75
2022-12-29T08:32:30.666Z,76.53
2022-12-29T08:34:58.788Z,76.49
2022-12-29T08:37:31.108Z,76.31
2022-12-29T08:39:59.959Z,75.94
2022-12-29T08:42:32.169Z,76.08
2022-12-29T08:45:00.387Z,75.64
2022-12-29T08:47:28.060Z,75.43
2022-12-29T08:49:55.741Z,74.92
2022-12-29T08:52:24.059Z,75.15
2022-12-29T08:54:51.813Z,75.13
2022-12-29T08:57:19.841Z,74.85
2022-12-29T08:59:47.479Z,74.23
2022-12-29T09:02:20.377Z,74.69
2022-12-29T09:04:51.475Z,74.57
2022-12-29T09:07:19.389Z,74.29
2022-12-29T09:09:47.522Z,74.31
2022-12-29T09:12:15.256Z,73.65
2022-12-29T09:14:44.308Z,73.73
2022-12-29T09:17:29.196Z,73.49
2022-12-29T09:19:57.495Z,73.87
2022-12-29T09:22:25.242Z,73.92
2022-12-29T09:24:52.995Z,74.50
2022-12-29T09:27:20.752Z,75.77
2022-12-29T09:29:48.450Z,76.60
2022-12-29T09:32:18.968Z,77.03
2022-12-29T09:34:47.546Z,77.68
2022-12-29T09:37:15.196Z,78.66
2022-12-29T09:39:44.713Z,78.90
2022-12-29T09:42:14.300Z,79.58
2022-12-29T09:44:42.531Z,79.55
2022-12-29T09:47:10.301Z,79.86
2022-12-29T09:49:41.047Z,79.90
2022-12-29T09:52:08.823Z,80.01
2022-12-29T09:54:36.516Z,79.62
2022-12-29T09:57:04.592Z,79.43
2022-12-29T09:59:32.395Z,79.22
2022-12-29T10:02:00.469Z,79.02
2022-12-29T10:04:28.739Z,79.16
2022-12-29T10:07:27.861Z,78.60
2022-12-29T10:09:44.731Z,78.41
2022-12-29T10:12:12.402Z,77.46
2022-12-29T10:14:40.527Z,77.42
2022-12-29T10:17:08.506Z,77.05
2022-12-29T10:19:36.349Z,76.95
2022-12-29T10:22:06.134Z,76.49
2022-12-29T10:24:33.966Z,76.55
2022-12-29T10:27:01.563Z,76.65
2022-12-29T10:29:29.376Z,76.11
2022-12-29T10:31:57.349Z,75.81
2022-12-29T10:34:25.238Z,75.58
2022-12-29T10:36:53.024Z,75.06
2022-12-29T10:39:20.941Z,74.17
2022-12-29T10:41:48.784Z,74.11
2022-12-29T10:44:17.113Z,74.15
2022-12-29T10:46:45.571Z,74.11
2022-12-29T10:49:18.009Z,73.48
2022-12-29T10:51:49.164Z,73.24
2022-12-29T10:54:16.846Z,72.95
2022-12-29T10:56:46.675Z,73.32
2022-12-29T10:59:14.968Z,72.85
2022-12-29T11:01:43.197Z,72.42
2022-12-29T11:04:11.109Z,72.25
2022-12-29T11:06:39.135Z,72.02
2022-12-29T11:09:07.358Z,72.18
2022-12-29T11:11:35.246Z,71.88
2022-12-29T11:14:03.176Z,71.76
2022-12-29T11:16:31.967Z,71.44
2022-12-29T11:19:00.064Z,71.39
2022-12-29T11:21:28.884Z,71.37
2022-12-29T11:23:56.959Z,71.06
2022-12-29T11:26:30.206Z,71.21
2022-12-29T11:29:01.659Z,71.39
2022-12-29T11:31:29.768Z,70.47
2022-12-29T11:33:57.635Z,71.10
2022-12-29T11:36:25.590Z,70.88
2022-12-29T11:38:53.294Z,70.62
2022-12-29T11:41:21.164Z,70.69
2022-12-29T11:43:49.712Z,70.64
2022-12-29T11:46:17.708Z,70.85
2022-12-29T11:48:45.577Z,70.05
2022-12-29T11:51:13.669Z,70.03
2022-12-29T11:53:41.455Z,70.21
2022-12-29T11:56:09.917Z,70.29
2022-12-29T11:58:38.100Z,70.17
2022-12-29T12:01:06.019Z,69.85
2022-12-29T12:03:34.160Z,69.61
2022-12-29T12:06:02.186Z,69.77
2022-12-29T12:08:31.013Z,69.84
2022-12-29T12:10:59.277Z,70.03
2022-12-29T12:13:27.103Z,69.71
2022-12-29T12:15:57.114Z,70.21
2022-12-29T12:18:25.168Z,69.76
2022-12-29T12:20:53.859Z,69.16
2022-12-29T12:23:22.428Z,69.58
2022-12-29T12:25:50.322Z,69.41
2022-12-29T12:28:18.359Z,69.63
2022-12-29T12:30:46.610Z,69.32
2022-12-29T12:33:15.010Z,69.07
2022-12-29T12:35:43.306Z,68.70
2022-12-29T12:38:11.229Z,68.50
2022-12-29T12:40:39.546Z,69.08
2022-12-29T12:43:10.345Z,68.14
2022-12-29T12:45:38.542Z,68.52
2022-12-29T12:48:06.864Z,68.87
2022-12-29T12:50:34.801Z,68.59
2022-12-29T12:53:02.565Z,68.62
2022-12-29T12:55:30.283Z,68.31
2022-12-29T12:57:58.654Z,68.24
2022-12-29T13:00:26.737Z,68.69
2022-12-29T13:02:54.855Z,68.49
2022-12-29T13:05:26.910Z,68.62
2022-12-29T13:07:55.078Z,68.79
2022-12-29T13:10:23.397Z,68.16
2022-12-29T13:12:53.108Z,68.26
2022-12-29T13:15:21.594Z,68.29
2022-12-29T13:17:49.637Z,68.36
2022-12-29T13:20:17.388Z,68.82
2022-12-29T13:22:45.549Z,68.30
2022-12-29T13:25:13.537Z,68.17
2022-12-29T13:27:41.418Z,67.71
2022-12-29T13:30:09.303Z,68.04
2022-12-29T13:32:37.482Z,68.13
2022-12-29T13:35:06.057Z,68.38
2022-12-29T13:37:34.340Z,68.43
2022-12-29T13:40:02.276Z,68.14
2022-12-29T13:42:30.232Z,68.45
2022-12-29T13:44:58.171Z,68.71
2022-12-29T13:47:26.586Z,68.31
2022-12-29T13:49:54.693Z,68.23
2022-12-29T13:52:22.653Z,68.27
2022-12-29T13:54:50.552Z,68.41
2022-12-29T13:57:24.144Z,68.49
2022-12-29T13:59:56.079Z,68.35
2022-12-29T14:02:23.991Z,68.49
2022-12-29T14:04:51.889Z,68.97
2022-12-29T14:07:19.723Z,68.73
2022-12-29T14:09:47.581Z,68.57
2022-12-29T14:12:16.172Z,68.57
2022-12-29T14:14:44.100Z,68.22
2022-12-29T14:17:14.760Z,68.79
2022-12-29T14:19:43.527Z,68.66
2022-12-29T14:22:11.436Z,68.58
2022-12-29T14:24:39.527Z,68.73
2022-12-29T14:27:07.351Z,68.29
2022-12-29T14:29:35.341Z,68.42
2022-12-29T14:32:03.226Z,68.28
2022-12-29T14:34:31.348Z,68.54
2022-12-29T14:36:59.452Z,68.39
2022-12-29T14:39:27.695Z,68.55
2022-12-29T14:41:55.525Z,68.47
2022-12-29T14:44:23.476Z,68.62
2022-12-29T14:46:51.405Z,68.20
2022-12-29T14:49:19.669Z,68.64
2022-12-29T14:51:47.567Z,68.64
2022-12-29T14:54:15.323Z,68.46
2022-12-29T14:56:43.039Z,67.79
2022-12-29T14:59:10.999Z,68.03
2022-12-29T15:01:41.291Z,67.88
2022-12-29T15:04:10.329Z,67.47
2022-12-29T15:06:38.328Z,68.07
2022-12-29T15:09:06.085Z,67.90
2022-12-29T15:11:33.911Z,67.93
2022-12-29T15:14:02.643Z,67.93
2022-12-29T15:16:30.597Z,67.81
2022-12-29T15:18:58.570Z,67.77
2022-12-29T15:21:26.532Z,67.98
2022-12-29T15:23:54.879Z,67.15
2022-12-29T15:26:24.574Z,67.37
2022-12-29T15:28:52.375Z,67.16
2022-12-29T15:31:24.942Z,67.05
2022-12-29T15:33:57.582Z,67.44
2022-12-29T15:36:25.622Z,66.83
2022-12-29T15:38:53.440Z,66.94
2022-12-29T15:41:21.487Z,67.40
2022-12-29T15:43:49.482Z,67.38
2022-12-29T15:46:17.419Z,67.32
2022-12-29T15:48:46.157Z,67.28
2022-12-29T15:51:14.135Z,67.15
2022-12-29T15:53:42.000Z,67.12
2022-12-29T15:56:10.164Z,67.72
2022-12-29T15:58:38.037Z,67.50
2022-12-29T16:01:06.305Z,66.87
2022-12-29T16:03:34.468Z,67.22
2022-12-29T16:06:02.851Z,67.71
2022-12-29T16:08:30.867Z,66.95
2022-12-29T16:10:59.199Z,67.74
2022-12-29T16:13:27.655Z,67.42
2022-12-29T16:15:55.497Z,66.96
2022-12-29T16:18:23.590Z,67.09
2022-12-29T16:20:51.588Z,67.09
2022-12-29T16:23:19.500Z,67.31
2022-12-29T16:25:48.692Z,67.04
2022-12-29T16:28:16.829Z,67.06
2022-12-29T16:30:44.887Z,67.20
2022-12-29T16:33:12.937Z,67.35
2022-12-29T16:35:40.753Z,67.31
2022-12-29T16:38:09.348Z,66.86
2022-12-29T16:40:37.587Z,66.96
2022-12-29T16:43:05.599Z,67.39
2022-12-29T16:45:33.427Z,67.46
2022-12-29T16:48:01.480Z,67.42
2022-12-29T16:50:30.449Z,67.93
2022-12-29T16:52:58.462Z,67.15
2022-12-29T16:55:26.509Z,67.54
2022-12-29T16:57:54.720Z,67.18
2022-12-29T17:00:22.512Z,67.10
2022-12-29T17:02:51.539Z,67.03
2022-12-29T17:05:19.501Z,67.30
2022-12-29T17:07:47.414Z,67.46
2022-12-29T17:10:16.098Z,67.29
2022-12-29T17:12:44.164Z,67.31
2022-12-29T17:15:14.652Z,67.21
2022-12-29T17:17:42.618Z,67.17
2022-12-29T17:20:10.445Z,67.58
2022-12-29T17:22:38.401Z,67.38
2022-12-29T17:25:06.489Z,67.46
2022-12-29T17:27:34.908Z,67.29
2022-12-29T17:30:03.608Z,67.55
2022-12-29T17:32:31.563Z,67.68
2022-12-29T17:34:59.845Z,67.25
2022-12-29T17:37:27.689Z,67.55
2022-12-29T17:39:55.963Z,67.89
2022-12-29T17:42:23.918Z,67.96
2022-12-29T17:44:51.890Z,67.37
2022-12-29T17:47:19.857Z,67.69
2022-12-29T17:49:48.033Z,67.47
2022-12-29T17:52:16.504Z,67.26
2022-12-29T17:54:44.705Z,66.92
2022-12-29T17:57:12.890Z,67.37
2022-12-29T17:59:40.830Z,67.94
2022-12-29T18:02:08.835Z,68.23
2022-12-29T18:04:37.356Z,69.13
2022-12-29T18:07:05.113Z,70.08
2022-12-29T18:09:33.151Z,71.03
2022-12-29T18:12:01.061Z,71.57
2022-12-29T18:14:28.910Z,71.99
2022-12-29T18:16:57.569Z,72.44
2022-12-29T18:19:26.287Z,73.04
2022-12-29T18:21:56.406Z,72.67
2022-12-29T18:24:24.431Z,72.58
2022-12-29T18:26:52.229Z,71.93
2022-12-29T18:29:20.610Z,71.73
2022-12-29T18:31:48.670Z,72.03
2022-12-29T18:34:16.609Z,72.18
2022-12-29T18:36:44.420Z,72.19
2022-12-29T18:39:12.366Z,72.30
2022-12-29T18:41:42.183Z,72.49
2022-12-29T18:44:10.104Z,72.79
2022-12-29T18:46:38.062Z,73.56
2022-12-29T18:49:06.075Z,73.55
2022-12-29T18:51:33.813Z,73.73
2022-12-29T18:54:03.707Z,74.10
2022-12-29T18:56:31.666Z,74.37
2022-12-29T18:58:59.472Z,75.13
2022-12-29T19:01:28.447Z,75.24
2022-12-29T19:03:56.795Z,75.34
2022-12-29T19:06:25.436Z,75.66
2022-12-29T19:08:53.573Z,75.31
2022-12-29T19:11:21.466Z,76.09
2022-12-29T19:13:49.375Z,76.00
2022-12-29T19:16:17.424Z,75.95
2022-12-29T19:18:53.300Z,75.77
2022-12-29T19:21:26.441Z,75.88
2022-12-29T19:23:54.318Z,75.64
2022-12-29T19:26:22.261Z,75.35
2022-12-29T19:28:50.799Z,75.31
2022-12-29T19:31:18.711Z,75.70
2022-12-29T19:33:46.597Z,75.25
2022-12-29T19:36:15.895Z,75.08
2022-12-29T19:38:43.740Z,75.26
2022-12-29T19:41:12.083Z,75.73
2022-12-29T19:43:40.124Z,75.42
2022-12-29T19:46:08.385Z,75.23
2022-12-29T19:48:36.321Z,75.39
2022-12-29T19:51:04.367Z,75.13
2022-12-29T19:53:32.768Z,75.26
2022-12-29T19:56:00.692Z,74.86
2022-12-29T19:58:28.790Z,74.75
2022-12-29T20:00:56.718Z,75.23
2022-12-29T20:03:24.502Z,75.12
2022-12-29T20:05:53.029Z,75.02
2022-12-29T20:08:21.168Z,75.18
2022-12-29T20:10:49.081Z,75.47
2022-12-29T20:13:17.050Z,74.94
2022-12-29T20:15:44.922Z,75.17
2022-12-29T20:18:14.752Z,75.32
2022-12-29T20:20:43.376Z,75.02
2022-12-29T20:23:11.249Z,74.97
2022-12-29T20:25:47.294Z,75.13
2022-12-29T20:28:17.388Z,74.79
2022-12-29T20:30:45.307Z,75.06
2022-12-29T20:33:13.135Z,74.90
2022-12-29T20:35:41.067Z,75.13
2022-12-29T20:38:08.950Z,75.12
2022-12-29T20:40:44.164Z,75.08
2022-12-29T20:43:14.000Z,74.89
2022-12-29T20:45:41.956Z,74.75
2022-12-29T20:48:09.887Z,74.78
2022-12-29T20:50:38.309Z,74.82
2022-12-29T20:53:06.291Z,74.64
2022-12-29T20:55:34.120Z,74.64
2022-12-29T21:00:50.656Z,74.94
2022-12-29T21:03:18.818Z,74.89
2022-12-29T21:05:46.989Z,74.69
2022-12-29T21:08:15.735Z,74.95
2022-12-29T21:10:43.755Z,74.59
2022-12-29T21:13:11.724Z,74.89
2022-12-29T21:15:39.800Z,74.64
2022-12-29T21:18:07.694Z,75.07
2022-12-29T21:20:35.662Z,74.88
2022-12-29T21:23:03.625Z,74.61
2022-12-29T21:25:37.798Z,74.61
2022-12-29T21:28:05.804Z,74.57
2022-12-29T21:30:34.126Z,74.59
2022-12-29T21:33:02.316Z,74.55
2022-12-29T21:35:31.009Z,74.59
2022-12-29T21:37:59.414Z,74.74
2022-12-29T21:40:27.516Z,74.76
2022-12-29T21:42:55.360Z,74.37
2022-12-29T21:45:30.210Z,74.39
2022-12-29T21:48:15.612Z,74.84
2022-12-29T21:50:57.158Z,74.90
2022-12-29T21:53:38.140Z,74.70
2022-12-29T21:56:06.058Z,74.49
2022-12-29T21:58:51.587Z,74.82
2022-12-29T22:01:37.164Z,75.17
2022-12-29T22:04:22.434Z,74.79
2022-12-29T22:07:07.594Z,74.77
2022-12-29T22:09:52.970Z,74.73
2022-12-29T22:12:38.656Z,74.92
2022-12-29T22:15:06.610Z,75.61
2022-12-29T22:17:37.663Z,75.42
2022-12-29T22:20:06.074Z,75.12
2022-12-29T22:22:33.898Z,75.35
2022-12-29T22:25:02.996Z,75.54
2022-12-29T22:27:31.298Z,75.23
2022-12-29T22:29:59.201Z,75.48
2022-12-29T22:32:27.436Z,75.44
2022-12-29T22:34:56.418Z,75.11
2022-12-29T22:37:24.433Z,75.28
2022-12-29T22:39:52.616Z,75.17
2022-12-29T22:42:20.580Z,75.53
2022-12-29T22:44:49.058Z,75.48
2022-12-29T22:47:16.801Z,75.12
2022-12-29T22:49:44.888Z,75.54
2022-12-29T22:52:14.525Z,75.49
2022-12-29T22:54:42.817Z,75.20
2022-12-29T22:57:11.047Z,75.39
2022-12-29T22:59:40.478Z,75.06
2022-12-29T23:02:08.262Z,75.32
2022-12-29T23:05:04.484Z,74.90
2022-12-29T23:07:37.189Z,75.59
2022-12-29T23:10:05.761Z,75.18
2022-12-29T23:12:33.865Z,75.16
2022-12-29T23:15:02.219Z,75.61
2022-12-29T23:17:30.548Z,75.54
2022-12-29T23:19:59.262Z,75.57
2022-12-29T23:22:27.280Z,75.58
2022-12-29T23:24:55.287Z,75.63
2022-12-29T23:27:23.246Z,75.66
2022-12-29T23:29:51.158Z,75.44
2022-12-29T23:32:20.364Z,75.70
2022-12-29T23:34:48.370Z,75.65
2022-12-29T23:37:16.518Z,75.57
2022-12-29T23:39:45.333Z,75.58
2022-12-29T23:42:13.277Z,75.37
2022-12-29T23:44:42.051Z,75.13
2022-12-29T23:47:09.874Z,75.33
2022-12-29T23:49:38.014Z,75.52
2022-12-29T23:52:05.918Z,75.36
2022-12-29T23:54:33.857Z,75.57
2022-12-29T23:57:02.647Z,75.43
2022-12-29T23:59:30.556Z,75.78
